createdAt,value
2022-08-03T00:01:42.874Z,20.9
2022-08-03T00:03:57.552Z,20.6
2022-08-03T00:06:22.518Z,20.8
2022-08-03T00:08:37.760Z,20.9
2022-08-03T00:10:52.155Z,20.4
2022-08-03T00:13:06.956Z,21
2022-08-03T00:15:21.815Z,21
2022-08-03T00:17:53.196Z,20.7
2022-08-03T00:19:55.803Z,19.9
2022-08-03T00:22:10.612Z,21.3
2022-08-03T00:24:25.409Z,20.3
2022-08-03T00:26:40.291Z,19.9
2022-08-03T00:28:55.230Z,20.9
2022-08-03T00:31:19.771Z,20
2022-08-03T00:34:03.413Z,20.1
2022-08-03T00:36:39.668Z,20.4
2022-08-03T00:38:58.181Z,20.4
2022-08-03T00:41:13.289Z,20.8
2022-08-03T00:43:27.794Z,20.7
2022-08-03T00:45:42.817Z,20.6
2022-08-03T03:38:06.742Z,17.9
2022-08-03T03:40:21.635Z,18.8
2022-08-03T03:42:35.885Z,18.9
2022-08-03T03:44:51.349Z,20
2022-08-03T03:47:06.097Z,17.5
2022-08-03T03:49:20.969Z,18.1
2022-08-03T03:51:35.845Z,18.1
2022-08-03T03:53:50.642Z,19.7
2022-08-03T03:56:17.088Z,18.4
2022-08-03T03:58:32.058Z,19.1
2022-08-03T04:03:01.751Z,18.9
2022-08-03T04:05:16.411Z,19.7
2022-08-03T04:07:31.424Z,19.5
2022-08-03T04:09:46.140Z,19.1
2022-08-03T04:12:01.630Z,19.9
2022-08-03T04:14:16.385Z,19.8
2022-08-03T04:16:31.397Z,20.6
2022-08-03T04:18:46.081Z,20
2022-08-03T04:21:00.920Z,19.7
2022-08-03T04:23:15.946Z,19.8
2022-08-03T04:25:30.716Z,20.4
2022-08-03T04:27:45.465Z,20.2
2022-08-03T04:30:18.348Z,20.6
2022-08-03T04:32:33.250Z,20.7
2022-08-03T04:34:47.980Z,21
2022-08-03T04:37:20.212Z,20.9
2022-08-03T04:39:35.030Z,20.1
2022-08-03T04:42:10.859Z,20.4
2022-08-03T04:44:28.230Z,20.4
2022-08-03T04:46:41.011Z,20.6
2022-08-03T04:48:55.838Z,20.8
2022-08-03T04:51:10.735Z,21.3
2022-08-03T04:53:25.581Z,20.6
2022-08-03T04:55:40.550Z,21.1
2022-08-03T04:57:55.331Z,21.1
2022-08-03T05:00:10.200Z,21.1
2022-08-03T05:02:24.977Z,22.9
2022-08-03T05:04:41.091Z,22.3
2022-08-03T05:07:11.798Z,22.4
2022-08-03T05:09:25.966Z,22.5
2022-08-03T05:11:52.100Z,22.7
2022-08-03T05:14:07.084Z,24.3
2022-08-03T05:16:21.704Z,22.1
2022-08-03T05:18:36.520Z,22.6
2022-08-03T05:21:08.720Z,23.8
2022-08-03T05:23:24.355Z,23.4
2022-08-03T05:25:39.382Z,23.1
2022-08-03T05:27:54.107Z,24.9
2022-08-03T05:30:26.411Z,24.8
2022-08-03T05:32:35.205Z,23.9
2022-08-03T05:34:50.067Z,24.6
2022-08-03T05:37:54.621Z,23.6
2022-08-03T05:40:05.573Z,23.9
2022-08-03T05:42:24.847Z,23.4
2022-08-03T05:44:39.839Z,23.3
2022-08-03T05:46:58.596Z,23.3
2022-08-03T05:49:13.828Z,23.6
2022-08-03T05:51:28.660Z,23.4
2022-08-03T05:53:43.793Z,23.7
2022-08-03T05:56:16.509Z,24.5
2022-08-03T05:58:30.084Z,24.9
2022-08-03T06:00:56.659Z,24.7
2022-08-03T06:03:11.516Z,25.4
2022-08-03T06:05:26.392Z,25.3
2022-08-03T06:07:41.334Z,25
2022-08-03T06:10:52.808Z,24.9
2022-08-03T06:13:07.970Z,25.3
2022-08-03T06:15:22.912Z,25.6
2022-08-03T06:17:37.940Z,24.7
2022-08-03T06:19:52.513Z,24.8
2022-08-03T06:22:07.586Z,25.4
2022-08-03T06:24:40.697Z,25.4
2022-08-03T06:26:55.493Z,25.6
2022-08-03T06:29:25.111Z,25.4
2022-08-03T06:31:39.961Z,26.1
2022-08-03T06:34:43.987Z,25.2
2022-08-03T06:37:01.876Z,25.3
2022-08-03T06:39:13.390Z,25.4
2022-08-03T06:41:28.415Z,26.3
2022-08-03T06:44:02.799Z,26.3
2022-08-03T06:46:07.091Z,27.8
2022-08-03T06:48:21.893Z,27.1
2022-08-03T06:50:48.957Z,28.6
2022-08-03T06:53:24.861Z,27.5
2022-08-03T06:55:40.817Z,28.6
2022-08-03T06:57:54.562Z,27.5
2022-08-03T07:00:57.484Z,27.4
2022-08-03T07:03:12.135Z,27.6
2022-08-03T07:05:26.883Z,27.9
2022-08-03T07:07:41.989Z,28.5
2022-08-03T07:09:59.044Z,28.8
2022-08-03T07:12:13.782Z,27.7
2022-08-03T07:14:29.181Z,28.4
2022-08-03T07:16:57.280Z,28.6
2022-08-03T07:19:12.228Z,29.2
2022-08-03T07:21:26.997Z,29.2
2022-08-03T07:23:41.954Z,30.4
2022-08-03T07:25:56.732Z,31.4
2022-08-03T07:28:11.992Z,30.4
2022-08-03T07:30:26.480Z,30.4
2022-08-03T07:32:49.029Z,30.4
2022-08-03T07:35:00.438Z,29.8
2022-08-03T07:37:11.648Z,30
2022-08-03T07:39:26.423Z,30.3
2022-08-03T07:41:41.851Z,31.9
2022-08-03T07:43:56.216Z,31.7
2022-08-03T07:46:11.021Z,31.4
2022-08-03T07:48:25.869Z,33.5
2022-08-03T07:50:40.789Z,33.9
2022-08-03T07:52:55.536Z,33.4
2022-08-03T07:55:10.380Z,33.8
2022-08-03T07:57:25.235Z,32.8
2022-08-03T07:59:49.172Z,33.6
2022-08-03T08:02:03.877Z,35.2
2022-08-03T08:04:25.967Z,36.4
2022-08-03T08:06:40.564Z,36.9
2022-08-03T08:08:55.391Z,37.5
2022-08-03T08:11:10.195Z,37.2
2022-08-03T08:13:24.537Z,35.9
2022-08-03T08:15:42.654Z,38.1
2022-08-03T08:17:54.879Z,37
2022-08-03T08:20:09.738Z,38.6
2022-08-03T08:22:30.322Z,39.6
2022-08-03T08:25:01.151Z,40.1
2022-08-03T08:27:14.574Z,39.8
2022-08-03T08:30:20.420Z,40.1
2022-08-03T08:32:35.052Z,40.2
2022-08-03T08:35:05.749Z,41.1
2022-08-03T08:37:20.419Z,41
2022-08-03T08:39:35.356Z,40.9
2022-08-03T08:41:53.176Z,41.2
2022-08-03T08:44:04.861Z,41.3
2022-08-03T08:46:23.033Z,41.7
2022-08-03T08:48:38.601Z,41.4
2022-08-03T08:50:59.602Z,41.9
2022-08-03T08:53:42.694Z,42.3
2022-08-03T08:56:01.948Z,42.4
2022-08-03T08:58:29.563Z,42.4
2022-08-03T09:00:52.107Z,41.8
2022-08-03T09:03:06.560Z,41.6
2022-08-03T09:05:31.606Z,41.9
2022-08-03T09:08:02.010Z,41.4
2022-08-03T09:10:59.062Z,42.6
2022-08-03T09:13:52.798Z,42.4
2022-08-03T09:16:34.110Z,42.6
2022-08-03T09:18:49.011Z,43.3
2022-08-03T09:21:19.090Z,42.8
2022-08-03T09:24:01.838Z,41.7
2022-08-03T09:26:25.900Z,42.2
2022-08-03T09:29:05.891Z,41.8
2022-08-03T09:31:21.505Z,42
2022-08-03T09:33:36.334Z,42
2022-08-03T09:36:08.089Z,42.2
2022-08-03T09:38:59.585Z,41.9
2022-08-03T09:41:14.475Z,41.1
2022-08-03T09:43:29.581Z,41.3
2022-08-03T09:45:44.425Z,41.8
2022-08-03T09:47:59.404Z,40.9
2022-08-03T09:50:14.401Z,40.1
2022-08-03T09:54:09.001Z,39.9
2022-08-03T09:57:23.676Z,36.6
2022-08-03T09:59:39.243Z,35.9
2022-08-03T10:01:56.196Z,36.2
2022-08-03T10:04:21.600Z,35.3
2022-08-03T10:06:36.347Z,35.4
2022-08-03T10:08:51.317Z,36.2
2022-08-03T10:11:18.060Z,36.7
2022-08-03T10:13:32.787Z,36.3
2022-08-03T10:16:42.623Z,36.4
2022-08-03T10:18:57.478Z,36.8
2022-08-03T10:21:12.385Z,36
2022-08-03T10:23:27.923Z,35.9
2022-08-03T10:25:42.189Z,34.7
2022-08-03T10:27:56.991Z,33.9
2022-08-03T10:30:11.730Z,34.3
2022-08-03T10:32:30.331Z,31.5
2022-08-03T10:35:19.843Z,32.1
2022-08-03T10:37:24.401Z,30.9
2022-08-03T10:39:43.481Z,31
2022-08-03T10:42:15.848Z,32
2022-08-03T10:44:30.780Z,32.1
2022-08-03T10:46:45.551Z,32.1
2022-08-03T10:49:00.501Z,32.6
2022-08-03T10:51:15.276Z,32.1
2022-08-03T10:53:37.795Z,33.4
2022-08-03T10:55:52.655Z,33.7
2022-08-03T10:58:25.158Z,33
2022-08-03T11:00:36.734Z,34.6
2022-08-03T11:03:02.979Z,33.4
2022-08-03T11:05:17.801Z,34.3
2022-08-03T11:07:32.638Z,33.4
2022-08-03T11:09:47.835Z,33.7
2022-08-03T11:12:02.618Z,33
2022-08-03T11:14:17.167Z,34.4
2022-08-03T11:16:32.063Z,32.8
2022-08-03T11:18:46.922Z,33.5
2022-08-03T11:21:15.607Z,31.4
2022-08-03T11:24:02.209Z,31.3
2022-08-03T11:26:26.488Z,30.1
2022-08-03T11:28:41.357Z,30.4
2022-08-03T11:30:56.224Z,31.4
2022-08-03T11:33:32.067Z,31.8
2022-08-03T11:35:46.833Z,31.9
2022-08-03T11:38:06.657Z,31.6
2022-08-03T11:40:21.409Z,34.3
2022-08-03T11:42:36.336Z,31.4
2022-08-03T11:44:51.122Z,30.6
2022-08-03T11:47:06.063Z,31.1
2022-08-03T11:49:22.653Z,29.8
2022-08-03T11:51:36.878Z,29.8
2022-08-03T11:53:51.665Z,28.3
2022-08-03T11:56:06.803Z,29.6
2022-08-03T11:59:53.053Z,27.3
2022-08-03T12:02:08.001Z,30.9
2022-08-03T12:04:22.934Z,31.1
2022-08-03T12:06:37.728Z,31.5
2022-08-03T12:09:23.434Z,32.3
2022-08-03T12:11:38.421Z,33.1
2022-08-03T12:15:22.435Z,31.8
2022-08-03T12:17:37.320Z,32.1
2022-08-03T12:19:52.393Z,32.1
2022-08-03T12:22:07.294Z,30.3
2022-08-03T12:24:22.086Z,31.2
2022-08-03T12:26:41.624Z,30.9
2022-08-03T12:29:10.366Z,30.1
2022-08-03T12:31:25.173Z,30.3
2022-08-03T12:33:40.096Z,30.4
2022-08-03T12:35:54.881Z,30.8
2022-08-03T12:38:09.905Z,30.4
2022-08-03T12:40:37.932Z,30.1
2022-08-03T12:42:52.874Z,29.4
2022-08-03T12:45:07.881Z,29.5
2022-08-03T12:47:22.857Z,29.5
2022-08-03T12:49:37.562Z,30.7
2022-08-03T12:51:52.607Z,29.9
2022-08-03T12:54:07.534Z,30.8
2022-08-03T12:56:37.913Z,31.6
2022-08-03T12:58:52.630Z,30.1
2022-08-03T13:01:09.364Z,30.7
2022-08-03T13:03:56.001Z,31.8
2022-08-03T13:06:10.822Z,30.7
2022-08-03T13:08:25.613Z,32.7
2022-08-03T13:10:40.647Z,32.7
2022-08-03T13:13:19.281Z,33.6
2022-08-03T13:15:34.584Z,31.9
2022-08-03T13:17:49.107Z,31.6
2022-08-03T13:20:03.845Z,31.8
2022-08-03T13:22:25.950Z,32.2
2022-08-03T13:24:40.793Z,33.5
2022-08-03T13:26:57.852Z,32.6
2022-08-03T13:30:01.157Z,32
2022-08-03T13:32:16.920Z,31.4
2022-08-03T13:34:31.779Z,31
2022-08-03T13:37:10.867Z,30.8
2022-08-03T13:39:14.002Z,30.6
2022-08-03T13:41:32.260Z,30.4
2022-08-03T13:43:46.988Z,29.9
2022-08-03T13:46:15.657Z,30
2022-08-03T13:48:38.776Z,30.3
2022-08-03T13:50:53.945Z,29.6
2022-08-03T13:53:09.395Z,28.4
2022-08-03T13:55:24.155Z,28.9
2022-08-03T13:58:21.793Z,29.5
2022-08-03T14:00:36.586Z,31.1
2022-08-03T14:03:14.369Z,26.4
2022-08-03T14:05:27.698Z,25.9
2022-08-03T14:07:42.510Z,26.1
2022-08-03T14:09:57.481Z,25.7
2022-08-03T14:12:39.754Z,27.4
2022-08-03T14:14:58.122Z,29.3
2022-08-03T14:19:24.868Z,24.1
2022-08-03T14:22:03.676Z,26.6
2022-08-03T14:24:11.434Z,25.8
2022-08-03T14:26:26.306Z,26.6
2022-08-03T14:28:41.265Z,26.3
2022-08-03T14:30:56.197Z,26.2
2022-08-03T14:33:59.917Z,26.1
2022-08-03T14:36:13.923Z,26.3
2022-08-03T14:38:28.826Z,26.7
2022-08-03T14:41:02.645Z,24.9
2022-08-03T14:43:17.527Z,27.6
2022-08-03T14:45:37.582Z,26.6
2022-08-03T14:50:44.326Z,27.1
2022-08-03T14:52:55.538Z,26.1
2022-08-03T14:55:10.307Z,25.5
2022-08-03T14:57:25.131Z,27
2022-08-03T14:59:53.932Z,26.1
2022-08-03T15:02:37.540Z,27
2022-08-03T15:04:52.234Z,27.1
2022-08-03T15:07:07.181Z,27.3
2022-08-03T15:09:38.991Z,27.4
2022-08-03T15:11:57.421Z,26.8
2022-08-03T15:14:13.280Z,27.1
2022-08-03T15:16:30.018Z,27.8
2022-08-03T15:18:47.156Z,26.6
2022-08-03T15:22:04.016Z,28.5
2022-08-03T15:24:18.894Z,27.8
2022-08-03T15:27:37.034Z,27.8
2022-08-03T15:30:42.569Z,27.1
2022-08-03T15:32:57.299Z,26.3
2022-08-03T15:35:12.340Z,26.8
2022-08-03T15:37:27.421Z,25.5
2022-08-03T15:39:58.679Z,27
2022-08-03T15:42:01.844Z,24.4
2022-08-03T15:44:16.714Z,23.4
2022-08-03T15:46:46.377Z,24.8
2022-08-03T15:49:01.217Z,23.8
2022-08-03T15:51:15.972Z,24
2022-08-03T15:53:31.095Z,23.9
2022-08-03T15:55:45.965Z,23.9
2022-08-03T15:59:18.573Z,25
2022-08-03T16:01:33.438Z,24.1
2022-08-03T16:03:48.123Z,24.5
2022-08-03T16:06:02.984Z,22.2
2022-08-03T16:08:19.839Z,22.8
2022-08-03T16:10:44.260Z,21.9
2022-08-03T16:12:59.283Z,23.9
2022-08-03T16:16:03.587Z,22.2
2022-08-03T16:18:18.540Z,21.8
2022-08-03T16:20:36.119Z,22.4
2022-08-03T16:22:51.148Z,22
2022-08-03T16:25:05.806Z,21.2
2022-08-03T16:27:37.708Z,21.9
2022-08-03T16:30:03.170Z,22.7
2022-08-03T16:32:18.031Z,22.7
2022-08-03T16:34:32.868Z,21.3
2022-08-03T16:36:47.880Z,22.9
2022-08-03T16:39:10.600Z,21.6
2022-08-03T16:41:25.339Z,22.7
2022-08-03T16:43:55.965Z,22.2
2022-08-03T16:46:10.722Z,23.9
2022-08-03T16:48:25.793Z,23.9
2022-08-03T16:50:55.761Z,23.9
2022-08-03T16:53:12.776Z,23.4
2022-08-03T16:55:55.779Z,22.4
2022-08-03T16:58:34.965Z,22.4
2022-08-03T17:00:52.285Z,22.6
2022-08-03T17:03:12.611Z,23.1
2022-08-03T17:05:43.952Z,23.1
2022-08-03T17:07:50.596Z,23.2
2022-08-03T17:10:04.279Z,23.6
2022-08-03T17:12:19.182Z,23.6
2022-08-03T17:14:33.974Z,23.6
2022-08-03T17:17:03.650Z,23.8
2022-08-03T17:19:28.359Z,23.8
2022-08-03T17:21:43.185Z,23.6
2022-08-03T17:24:12.229Z,23.6
2022-08-03T17:26:49.971Z,23.7
2022-08-03T17:30:25.255Z,23.8
2022-08-03T17:32:52.503Z,23.7
2022-08-03T17:35:07.486Z,23.9
2022-08-03T17:38:03.539Z,23.6
2022-08-03T17:40:29.450Z,23.7
2022-08-03T17:42:50.640Z,23.5
2022-08-03T21:16:16.401Z,20.8
2022-08-03T21:18:33.441Z,21.2
2022-08-03T21:20:48.368Z,20.7
2022-08-03T21:23:03.096Z,20.8
2022-08-03T21:25:32.877Z,20.7
2022-08-03T21:27:47.648Z,20.8
2022-08-03T21:30:02.479Z,20.7
2022-08-03T21:32:19.194Z,20.8
2022-08-03T21:34:34.508Z,20.7
2022-08-03T21:36:49.207Z,20.6
2022-08-03T21:39:04.239Z,20.9
2022-08-03T21:41:18.987Z,20.9
2022-08-03T21:43:33.738Z,20.9
2022-08-03T21:45:48.699Z,20.8
2022-08-03T21:48:03.443Z,20.6
2022-08-03T21:51:11.365Z,20.8
2022-08-03T21:53:26.169Z,20.5
2022-08-03T21:56:08.428Z,20.6
2022-08-03T21:58:26.656Z,20.4
2022-08-03T22:00:38.243Z,20.5
2022-08-03T22:02:57.295Z,20.6
2022-08-03T22:05:44.569Z,20.1
2022-08-03T22:08:00.143Z,20.5
2022-08-03T22:10:14.921Z,20.6
2022-08-03T22:12:29.944Z,20.5
2022-08-03T22:14:45.802Z,20.8
2022-08-03T22:17:00.644Z,20.3
2022-08-03T22:19:41.521Z,20.1
2022-08-03T22:21:56.473Z,20.2
2022-08-03T22:24:11.928Z,20.5
2022-08-03T22:26:32.580Z,20.5
2022-08-03T22:28:41.521Z,20.6
2022-08-03T22:30:56.402Z,21.1
2022-08-03T22:33:44.888Z,20.4
2022-08-03T22:35:59.901Z,20.7
2022-08-03T22:38:14.862Z,21
2022-08-03T22:40:29.576Z,20.4
2022-08-03T22:42:44.451Z,19.9
2022-08-03T22:44:59.117Z,20
2022-08-03T22:47:58.121Z,19.7
2022-08-03T22:50:34.768Z,19.5
2022-08-03T22:52:49.892Z,20.4
2022-08-03T22:55:04.733Z,19.8
2022-08-03T22:57:19.712Z,20.2
2022-08-03T22:59:57.330Z,20.1
2022-08-03T23:02:15.224Z,19.9
2022-08-03T23:04:48.892Z,19.9
2022-08-03T23:07:35.476Z,20.6
2022-08-03T23:09:50.383Z,21
2022-08-03T23:12:05.171Z,20.8
2022-08-03T23:14:20.053Z,20.4
2022-08-03T23:16:34.851Z,20.7
2022-08-03T23:19:03.481Z,20.1
2022-08-03T23:21:18.555Z,20.6
2022-08-03T23:24:03.093Z,20.3
2022-08-03T23:26:17.970Z,20.1
2022-08-03T23:28:36.729Z,20.1
2022-08-03T23:30:51.599Z,20
2022-08-03T23:33:06.690Z,19.9
2022-08-03T23:35:21.479Z,20
2022-08-03T23:38:54.997Z,19.8
2022-08-03T23:41:09.837Z,20.1
2022-08-03T23:43:45.326Z,20.1
2022-08-03T23:45:54.211Z,19.9
2022-08-03T23:48:19.858Z,21.2
2022-08-03T23:50:34.695Z,17.8
2022-08-03T23:52:49.636Z,20.8
2022-08-03T23:55:04.432Z,20.7
2022-08-03T23:57:19.389Z,19.8
2022-08-03T23:59:34.098Z,20
